This is the latest recevied weather packets stored in our database for station/object IV6ZJU-13. If no packets are shown the sender has not sent any weather packets the latest 10 day(s).
| Time | Temp. | Humidity | Pressure | Rain* | Wind** | Luminosity | Snow |
|---|---|---|---|---|---|---|---|
| 1777769393 | 13.33° C | 45% | 1012 hPa | - | - | - | - |
| 1777763993 | 14.44° C | 44% | 1012.8 hPa | - | - | - | - |
| 1777762186 | 15° C | 43% | 1012.9 hPa | - | - | - | - |
| 1777761281 | 15° C | 44% | 1013 hPa | - | - | - | - |
| 1777760381 | 14.44° C | 45% | 1012.9 hPa | - | - | - | - |
| 1777759486 | 15° C | 45% | 1012.9 hPa | - | - | - | - |
| 1777758586 | 15° C | 45% | 1012.9 hPa | - | - | - | - |
| 1777757685 | 15.56° C | 44% | 1012.9 hPa | - | - | - | - |
| 1777756786 | 15.56° C | 45% | 1013 hPa | - | - | - | - |
| 1777755885 | 16.11° C | 44% | 1013 hPa | - | - | - | - |
| 1777754986 | 15.56° C | 44% | 1013 hPa | - | - | - | - |
| 1777754085 | 16.67° C | 43% | 1013.2 hPa | - | - | - | - |
| 1777753186 | 16.67° C | 45% | 1013.3 hPa | - | - | - | - |
| 1777752285 | 17.22° C | 43% | 1013.4 hPa | - | - | - | - |
| 1777751386 | 18.33° C | 42% | 1013.4 hPa | - | - | - | - |
| 1777750484 | 18.33° C | 40% | 1013.4 hPa | - | - | - | - |
| 1777749586 | 18.89° C | 42% | 1013.3 hPa | - | - | - | - |
| 1777748684 | 20.56° C | 36% | 1013.1 hPa | - | - | - | - |
| 1777747786 | 19.44° C | 39% | 1013 hPa | - | - | - | - |
| 1777746884 | 20.56° C | 39% | 1012.9 hPa | - | - | - | - |
| 1777745986 | 21.67° C | 37% | 1012.9 hPa | - | - | - | - |
| 1777745086 | 22.22° C | 33% | 1012.7 hPa | - | - | - | - |
| 1777744186 | 23.33° C | 35% | 1012.6 hPa | - | - | - | - |
| 1777743283 | 26.67° C | 26% | 1012.4 hPa | - | - | - | - |
| 1777742385 | 27.22° C | 26% | 1012.4 hPa | - | - | - | - |
* Rain since midnight (hover to see other rain measurements)
** Current wind speed in m/s (hover to see current wind gust speed)